Hauptseite
METAR-TAF:

METAR-TAF

Flughäfen :

Flugplatz Laupheim

Laupheim, Deutschland

Breite: 48-13N, Länge: 009-55E, Höhe: 538 m

Beobachtung

Neuester Wetterbericht von vor 19 Minuten, um 17:20 UTC
Wind 11 kt aus West/Südwest
Temperatur -1°C
Luftfeuchtigkeit 80%
Luftdruck 1023 hPa
Sichtweite 10 km oder mehr
Durchbrochene Bewölkung in der Höhe von 900 ft

METAR: ETHL 301720Z 24011KT 9999 BKN009 M01/M04 Q1023 GRN GRN

Zeit: 18:39 (17:39 UTC)

Prognose

Neuester Wetterbericht von vor 3 Stunden und 19 Minuten, um 14:20 UTC
Gültige Prognose vom 30 um 15 UTC bis 30 um 24 UTC
Wind 5 kt aus West/Südwest
Sichtweite 10 km oder mehr
Durchbrochene Bewölkung in der Höhe von 1000 ft
Zeitweise
vom 30 um 16 UTC bis 30 um 19 UTC
Wind 5 kt aus Süd
Sichtweite: 7000 m
Durchbrochene Bewölkung in der Höhe von 600 ft

TAF: ETHL 301420Z 3015/3024 24005KT 9999 NSW BKN010 TEMPO 3016/3019 19005KT 7000 NSW BKN006

Wetterbeobachtungen und Prognosen von mehr als 4000 Flughäfen (METAR und TAF Bericht).

Die verfügbaren Stationen werden durch gelbe und rote Markierungen auf der Karte dargestellt.

Führen Sie die Maus auf sie, um den Namen der Station zu sehen.

Darauf klicken, um die Beobachtung von Wetterbeobachtungen und Prognosen zu sehen.

Um die Karte zu ändern : klicken Sie auf den grünen Tasten mit einem schwarzen Kreuz Zum Vergrößern, auf den grünen Button mit einem Gedankenstrich zu verkleinern, oder auf die grünen Pfeile für benachbarte Karten.


METAR-TAF: